Time;durP1;ratioP1;P1;durP2;ratioP2;P2;SDS_P1;SDS_P2;PMS_P1;PMS_P2;Temp;Humidity;BMP_temperature;BMP_pressure;BME280_temperature;BME280_humidity;BME280_pressure;Samples;Min_cycle;Max_cycle;Signal;HPM_P1;HPM_P2
2021/03/16 00:01:31;;;;;;;10.73;3.40;;;5.70;78.70;;;4.59;66.03;98583.91;5084373;28;20568;-82
2021/03/16 00:03:57;;;;;;;14.32;3.60;;;5.70;79.30;;;4.63;65.96;98577.31;5064408;28;20412;-84
2021/03/16 00:06:23;;;;;;;12.33;3.50;;;5.70;78.40;;;4.65;65.80;98586.63;5065554;28;20541;-84
2021/03/16 00:08:53;;;;;;;10.32;3.28;;;5.80;78.20;;;4.67;65.58;98587.25;5086241;28;20411;-84
2021/03/16 00:11:19;;;;;;;8.23;3.40;;;5.80;77.80;;;4.69;65.54;98589.69;5068869;28;20423;-83
2021/03/16 00:13:45;;;;;;;13.13;3.65;;;5.80;77.80;;;4.75;65.23;98596.81;5087249;28;20422;-83
2021/03/16 00:16:12;;;;;;;9.45;3.60;;;5.80;77.60;;;4.79;65.37;98595.47;5094077;28;20423;-83
2021/03/16 00:18:41;;;;;;;9.35;3.40;;;5.90;77.70;;;4.79;65.01;98587.59;5090910;28;20415;-82
2021/03/16 00:21:10;;;;;;;10.27;3.13;;;5.90;77.00;;;4.70;65.29;98591.31;5068388;28;20450;-82
2021/03/16 00:23:36;;;;;;;8.52;3.38;;;5.80;77.60;;;4.65;64.89;98594.50;5084992;28;20411;-81
2021/03/16 00:26:02;;;;;;;7.63;3.10;;;5.80;77.10;;;4.64;65.64;98598.13;5086114;28;20469;-82
2021/03/16 00:28:28;;;;;;;8.10;3.47;;;5.80;77.80;;;4.67;65.91;98600.34;5085393;28;20442;-82
2021/03/16 00:30:55;;;;;;;11.77;3.72;;;5.80;78.30;;;4.66;65.30;98606.59;5068951;28;20483;-81
2021/03/16 00:33:22;;;;;;;12.75;3.67;;;5.80;77.60;;;4.64;65.28;98602.53;5087200;28;20454;-81
2021/03/16 00:35:49;;;;;;;10.13;3.45;;;5.80;77.70;;;4.61;65.92;98603.72;5086015;28;20447;-81
2021/03/16 00:38:15;;;;;;;8.40;3.40;;;5.70;78.20;;;4.51;65.61;98608.41;5087290;28;20414;-82
2021/03/16 00:40:42;;;;;;;11.00;3.13;;;5.60;77.70;;;4.57;66.09;98605.09;5070648;28;20953;-83
2021/03/16 00:43:08;;;;;;;8.13;3.30;;;5.70;78.70;;;4.58;65.62;98600.66;5088201;28;20404;-82
2021/03/16 00:45:34;;;;;;;13.70;3.75;;;5.70;78.00;;;4.58;65.61;98611.97;5088376;28;20399;-83
2021/03/16 00:48:00;;;;;;;8.02;3.17;;;5.70;77.80;;;4.53;64.70;98603.81;5091559;28;20411;-83
2021/03/16 00:50:27;;;;;;;8.30;3.70;;;5.70;76.80;;;4.55;64.91;98601.00;5090694;28;20408;-83
2021/03/16 00:52:53;;;;;;;12.52;3.22;;;5.70;77.20;;;4.59;64.10;98602.25;5068239;28;20420;-83
2021/03/16 00:55:20;;;;;;;8.83;2.93;;;5.70;76.10;;;4.60;63.22;98604.69;5088281;28;20426;-82
2021/03/16 00:57:46;;;;;;;7.90;3.60;;;5.70;75.00;;;4.64;63.09;98602.53;5087652;28;20455;-83
2021/03/16 01:00:14;;;;;;;9.13;3.40;;;5.70;74.90;;;4.70;62.29;98606.22;5068361;28;20500;-83
2021/03/16 01:02:40;;;;;;;10.48;3.72;;;5.80;74.00;;;4.73;62.15;98605.88;5082233;28;20430;-83
2021/03/16 01:05:08;;;;;;;9.43;2.90;;;5.80;74.00;;;4.64;61.82;98605.97;5082577;28;20448;-83
2021/03/16 01:07:35;;;;;;;8.65;3.13;;;5.80;73.40;;;4.61;61.82;98611.56;5089200;28;20409;-81
2021/03/16 01:10:01;;;;;;;8.88;3.20;;;5.70;73.50;;;4.51;62.01;98621.53;5073876;28;20491;-81
2021/03/16 01:12:28;;;;;;;14.15;3.17;;;5.70;73.50;;;4.45;62.26;98619.63;5087129;28;20415;-83
2021/03/16 01:14:54;;;;;;;10.93;3.05;;;5.60;73.90;;;4.46;62.12;98616.03;5082817;28;20431;-83
2021/03/16 01:17:20;;;;;;;10.65;3.60;;;5.60;73.80;;;4.54;62.49;98625.59;5083495;28;20412;-83
2021/03/16 01:19:46;;;;;;;8.43;2.88;;;5.60;74.30;;;4.52;61.97;98625.78;5082349;28;20420;-83
2021/03/16 01:22:12;;;;;;;10.48;3.30;;;5.60;73.60;;;4.47;62.12;98629.94;5065184;28;20826;-83
2021/03/16 01:24:39;;;;;;;10.18;3.03;;;5.60;73.50;;;4.40;62.54;98629.84;5083597;28;20400;-83
2021/03/16 01:27:05;;;;;;;12.40;3.50;;;5.60;74.20;;;4.46;62.97;98634.38;5064915;28;20891;-83
2021/03/16 01:29:31;;;;;;;8.55;3.60;;;5.60;74.50;;;4.47;62.57;98635.19;5082940;28;20420;-83
2021/03/16 01:31:57;;;;;;;10.93;4.05;;;5.60;74.20;;;4.48;62.65;98631.56;5091362;28;20418;-83
2021/03/16 01:34:24;;;;;;;10.20;3.28;;;5.60;74.40;;;4.45;63.02;98632.75;5073766;28;20416;-83
2021/03/16 01:36:51;;;;;;;9.90;3.35;;;5.60;74.70;;;4.48;63.56;98639.44;5083290;28;20465;-83
2021/03/16 01:39:17;;;;;;;8.35;3.30;;;5.60;75.10;;;4.48;63.21;98637.63;5092276;28;20414;-82
2021/03/16 01:41:44;;;;;;;11.00;3.38;;;5.60;75.10;;;4.40;63.91;98636.91;5092868;28;20672;-81
2021/03/16 01:44:10;;;;;;;11.55;3.97;;;5.60;75.50;;;4.19;64.75;98641.06;5088024;28;20415;-83
2021/03/16 01:46:36;;;;;;;13.52;3.78;;;5.40;76.50;;;4.22;65.02;98635.44;5086089;28;20429;-83
2021/03/16 01:49:03;;;;;;;13.07;3.65;;;5.40;76.90;;;4.33;64.61;98633.38;5083430;28;20396;-83
2021/03/16 01:51:29;;;;;;;10.63;3.42;;;5.40;76.80;;;4.41;64.46;98638.53;5082509;28;20689;-83
2021/03/16 01:53:55;;;;;;;12.13;3.20;;;5.50;76.60;;;4.37;64.86;98639.88;5083028;28;20407;-83
2021/03/16 01:56:21;;;;;;;11.80;3.35;;;5.50;76.80;;;4.29;65.29;98646.84;5082758;28;20487;-82
2021/03/16 01:58:48;;;;;;;11.25;3.72;;;5.50;77.10;;;4.24;65.35;98633.47;5082287;28;20572;-83
2021/03/16 02:01:15;;;;;;;13.48;4.10;;;5.40;77.40;;;4.27;65.52;98640.97;5084121;28;20399;-83
2021/03/16 02:03:41;;;;;;;11.10;4.20;;;5.40;77.60;;;4.28;65.46;98644.41;5082934;28;20404;-83
2021/03/16 02:06:16;;;;;;;12.20;3.83;;;5.40;77.60;;;4.25;65.97;98635.09;5083690;28;20415;-83
2021/03/16 02:09:07;;;;;;;8.73;3.35;;;5.40;78.00;;;4.26;65.82;98649.84;5064565;28;20833;-83
2021/03/16 02:11:40;;;;;;;9.57;4.17;;;5.40;78.00;;;4.28;65.80;98650.44;5083105;28;20396;-82
2021/03/16 02:14:19;;;;;;;14.20;4.07;;;5.40;78.00;;;4.32;65.85;98642.25;5083908;28;20407;-82
2021/03/16 02:16:56;;;;;;;11.60;3.05;;;5.50;78.30;;;4.20;66.07;98644.50;5083196;28;20416;-83
2021/03/16 02:19:56;;;;;;;10.00;3.83;;;5.40;78.00;;;4.08;66.35;98653.78;5083208;28;20701;-83
2021/03/16 02:22:25;;;;;;;8.43;3.58;;;5.30;78.50;;;4.10;66.82;98646.56;5083021;28;20555;-83
2021/03/16 02:25:28;;;;;;;10.67;3.83;;;5.20;79.00;;;4.12;66.57;98641.97;5065520;28;20814;-82
2021/03/16 02:28:21;;;;;;;8.55;3.70;;;5.30;78.70;;;4.20;66.43;98649.75;5084687;28;20412;-83
2021/03/16 02:30:49;;;;;;;11.02;3.70;;;5.40;78.70;;;4.25;66.07;98644.78;5084309;28;20408;-83
2021/03/16 02:33:22;;;;;;;11.70;3.90;;;5.40;78.20;;;4.28;65.97;98655.69;5066950;28;20832;-83
2021/03/16 02:35:51;;;;;;;10.27;3.70;;;5.40;78.10;;;4.19;66.06;98653.34;5068223;28;20439;-83
2021/03/16 02:38:22;;;;;;;10.32;4.03;;;5.40;78.20;;;4.16;66.23;98653.69;5073055;28;20407;-82
2021/03/16 02:40:51;;;;;;;13.40;3.47;;;5.30;78.40;;;4.19;66.39;98654.16;5094350;28;20398;-81
2021/03/16 02:43:18;;;;;;;13.77;3.60;;;5.30;78.70;;;4.19;66.22;98659.41;5093290;28;20421;-83
2021/03/16 02:45:47;;;;;;;8.82;3.40;;;5.40;79.10;;;4.18;66.21;98655.16;5090651;28;20407;-83
2021/03/16 02:48:15;;;;;;;12.75;3.97;;;5.30;78.50;;;4.16;66.24;98656.31;5072137;28;20434;-82
2021/03/16 02:50:45;;;;;;;10.75;3.75;;;5.30;78.50;;;4.16;66.54;98656.31;5086342;28;20407;-82
2021/03/16 02:53:12;;;;;;;11.80;3.70;;;5.30;78.80;;;4.22;66.48;98658.22;5081957;28;20414;-81
2021/03/16 02:55:41;;;;;;;13.02;3.95;;;5.30;78.90;;;4.24;66.56;98667.53;5081621;28;20494;-83
2021/03/16 02:58:09;;;;;;;8.98;3.53;;;5.40;79.10;;;4.25;67.03;98663.94;5086505;28;20403;-83
2021/03/16 03:00:36;;;;;;;11.15;3.45;;;5.40;79.20;;;4.28;66.65;98660.94;5088130;28;20411;-83
2021/03/16 03:03:05;;;;;;;10.20;3.20;;;5.40;78.90;;;4.23;67.33;98663.28;5081236;28;20486;-83
2021/03/16 03:05:34;;;;;;;16.00;4.37;;;5.40;79.40;;;4.26;66.85;98659.50;5080737;28;20396;-83
2021/03/16 03:08:01;;;;;;;9.77;3.90;;;5.40;79.50;;;4.24;66.65;98667.53;5064331;28;20458;-83
2021/03/16 03:10:27;;;;;;;10.43;3.70;;;5.40;79.30;;;4.26;66.62;98659.50;5083952;28;20408;-84
2021/03/16 03:12:53;;;;;;;11.57;3.50;;;5.40;80.00;;;4.27;66.67;98655.91;5063999;28;20506;-83
2021/03/16 03:15:19;;;;;;;7.55;3.40;;;5.40;79.30;;;4.29;66.59;98643.41;5082963;28;20420;-83
2021/03/16 03:17:45;;;;;;;11.23;3.47;;;5.40;79.10;;;4.24;67.17;98645.75;5083521;28;20426;-82
2021/03/16 03:20:15;;;;;;;12.27;3.92;;;5.40;79.20;;;4.31;66.48;98666.81;5080015;28;20418;-83
2021/03/16 03:22:45;;;;;;;10.88;3.20;;;5.40;78.90;;;4.16;66.98;98682.53;5079792;28;20472;-82
2021/03/16 03:25:19;;;;;;;9.00;3.45;;;5.40;79.10;;;3.95;67.36;98683.22;5079874;28;20513;-83
2021/03/16 03:27:52;;;;;;;8.98;3.70;;;5.20;79.50;;;3.92;67.70;98682.72;5081681;28;20438;-83
2021/03/16 03:30:22;;;;;;;12.20;3.85;;;5.10;80.30;;;3.93;67.89;98689.59;5063067;28;20897;-84
2021/03/16 03:32:48;;;;;;;7.55;3.13;;;5.10;80.50;;;3.92;67.78;98694.03;5083186;28;20415;-84
2021/03/16 03:35:16;;;;;;;11.43;3.90;;;5.10;80.30;;;3.80;68.38;98705.94;5065404;28;20874;-82
2021/03/16 03:37:48;;;;;;;9.10;3.40;;;5.00;80.90;;;3.85;69.07;98700.97;5083152;28;20503;-82
2021/03/16 03:40:15;;;;;;;8.73;3.75;;;5.00;81.90;;;3.95;69.02;98700.72;5082849;28;20790;-83
2021/03/16 03:42:42;;;;;;;10.35;3.50;;;5.10;81.60;;;3.85;68.05;98703.59;5085860;28;20446;-84
2021/03/16 03:45:11;;;;;;;9.15;3.55;;;5.10;80.50;;;3.88;67.85;98698.00;5087943;28;20446;-84
2021/03/16 03:47:41;;;;;;;9.32;3.60;;;5.10;80.60;;;3.81;67.82;98697.09;5087950;28;20408;-81
2021/03/16 03:50:11;;;;;;;13.20;3.80;;;5.00;80.30;;;3.85;67.87;98708.81;5087596;28;20519;-84
2021/03/16 03:52:39;;;;;;;10.95;3.83;;;5.00;80.30;;;3.91;67.43;98707.31;5088667;28;20441;-85
2021/03/16 03:55:08;;;;;;;13.80;3.97;;;5.00;80.00;;;3.84;67.07;98712.44;5088802;28;20434;-84
2021/03/16 03:57:35;;;;;;;12.23;3.90;;;5.00;79.30;;;3.83;67.06;98713.44;5090710;28;20472;-84
2021/03/16 04:00:03;;;;;;;8.68;3.38;;;5.00;79.10;;;3.83;66.73;98708.22;5093919;28;20404;-84
2021/03/16 04:02:30;;;;;;;11.55;3.22;;;5.00;79.00;;;3.84;66.29;98721.09;5090548;28;20415;-83
2021/03/16 04:04:56;;;;;;;9.45;3.55;;;5.00;78.70;;;3.80;66.50;98716.41;5092456;28;20757;-84
2021/03/16 04:07:23;;;;;;;9.70;3.42;;;5.00;78.70;;;3.85;66.86;98729.78;5093727;28;20518;-83
2021/03/16 04:09:50;;;;;;;12.65;3.47;;;5.00;79.10;;;3.85;66.89;98727.16;5079264;28;20395;-83
2021/03/16 04:12:17;;;;;;;12.25;3.40;;;5.00;79.10;;;3.73;67.14;98725.94;5098473;28;20415;-82
2021/03/16 04:14:43;;;;;;;8.85;3.40;;;4.90;79.10;;;3.64;67.29;98730.41;5096459;28;20423;-83
2021/03/16 04:17:10;;;;;;;11.40;4.00;;;4.80;79.80;;;3.67;67.51;98737.94;5092621;28;20411;-83
2021/03/16 04:19:37;;;;;;;11.18;3.40;;;4.80;80.00;;;3.67;68.11;98737.13;5093304;28;20411;-83
2021/03/16 04:22:03;;;;;;;11.45;3.30;;;4.90;80.60;;;3.60;68.63;98738.81;5094575;28;20422;-83
2021/03/16 04:24:30;;;;;;;13.68;3.38;;;4.80;81.10;;;3.40;69.74;98733.19;5073237;28;20411;-83
2021/03/16 04:26:56;;;;;;;10.00;3.33;;;4.60;82.00;;;3.45;69.71;98739.53;5091279;28;20415;-83
2021/03/16 04:29:23;;;;;;;11.75;2.85;;;4.60;82.50;;;3.40;69.39;98738.41;5097703;28;20422;-83
2021/03/16 04:31:49;;;;;;;13.30;3.58;;;4.60;82.10;;;3.48;69.56;98749.66;5097875;28;20415;-82
2021/03/16 04:34:15;;;;;;;10.63;3.53;;;4.60;82.40;;;3.59;69.42;98753.69;5097405;28;20446;-82
2021/03/16 04:36:41;;;;;;;9.20;3.17;;;4.70;82.40;;;3.60;68.44;98763.19;5098013;28;20400;-83
2021/03/16 04:39:07;;;;;;;14.25;4.00;;;4.70;81.30;;;3.62;68.31;98748.09;5097676;28;20403;-83
2021/03/16 04:41:33;;;;;;;9.75;3.17;;;4.80;80.90;;;3.63;68.06;98754.97;5094950;28;20412;-83
2021/03/16 04:44:00;;;;;;;10.15;3.00;;;4.80;80.50;;;3.58;68.24;98764.34;5088494;28;20408;-84
2021/03/16 04:46:26;;;;;;;12.82;3.35;;;4.80;80.80;;;3.59;67.66;98761.56;5088520;28;20403;-80
2021/03/16 04:48:53;;;;;;;10.50;3.25;;;4.80;80.60;;;3.49;68.07;98759.16;5088457;28;20400;-79
2021/03/16 04:51:19;;;;;;;11.27;3.22;;;4.70;80.20;;;3.43;68.30;98759.84;5087549;28;20407;-79
2021/03/16 04:53:45;;;;;;;8.73;2.80;;;4.70;80.50;;;3.48;68.14;98762.75;5088199;28;20449;-85
2021/03/16 04:56:11;;;;;;;9.23;3.37;;;4.70;80.60;;;3.54;67.91;98758.63;5089803;28;20423;-84
2021/03/16 04:58:37;;;;;;;11.35;3.45;;;4.70;80.90;;;3.58;68.08;98765.16;5092379;28;20442;-84
2021/03/16 05:01:04;;;;;;;10.55;2.90;;;4.70;80.60;;;3.63;67.77;98770.69;5088949;28;20407;-83
2021/03/16 05:03:31;;;;;;;13.63;3.57;;;4.80;80.40;;;3.59;67.91;98756.31;5090988;28;20469;-82
2021/03/16 05:05:57;;;;;;;16.05;2.97;;;4.80;80.40;;;3.67;67.75;98765.91;5075993;28;20411;-82
2021/03/16 05:08:23;;;;;;;9.75;2.97;;;4.80;80.40;;;3.68;68.05;98755.28;5070894;28;20443;-83
2021/03/16 05:10:49;;;;;;;15.77;3.85;;;4.90;80.60;;;3.77;67.05;98750.78;5090713;28;20438;-83
2021/03/16 05:13:15;;;;;;;10.30;3.10;;;4.90;79.80;;;3.66;67.13;98764.28;5091749;28;20414;-84
2021/03/16 05:15:41;;;;;;;11.23;3.60;;;4.90;79.30;;;3.61;67.61;98769.25;5088970;28;20415;-83
2021/03/16 05:18:08;;;;;;;11.50;3.35;;;4.80;79.80;;;3.63;67.57;98778.53;5064275;28;20675;-84
2021/03/16 05:20:35;;;;;;;12.43;3.38;;;4.80;80.10;;;3.66;67.20;98774.75;5066193;28;20491;-83
2021/03/16 05:23:01;;;;;;;18.45;3.92;;;4.80;79.70;;;3.68;67.04;98781.47;5092552;28;20416;-82
2021/03/16 05:25:27;;;;;;;16.02;3.20;;;4.80;79.70;;;3.65;67.21;98771.31;5085090;28;20408;-83
2021/03/16 05:27:53;;;;;;;15.48;3.45;;;4.80;79.70;;;3.66;67.30;98785.25;5086443;28;20415;-83
2021/03/16 05:30:20;;;;;;;10.50;3.08;;;4.80;79.80;;;3.64;67.03;98789.81;5084932;28;20422;-83
2021/03/16 05:32:46;;;;;;;10.27;3.15;;;4.80;79.40;;;3.60;66.64;98799.03;5084630;28;20407;-83
2021/03/16 05:35:13;;;;;;;14.38;3.58;;;4.80;78.90;;;3.58;66.86;98798.38;5067071;28;20412;-83
2021/03/16 05:37:40;;;;;;;14.95;3.38;;;4.80;79.20;;;3.67;66.75;98811.25;5082874;28;20406;-83
2021/03/16 05:40:08;;;;;;;13.27;3.45;;;4.80;79.20;;;3.79;67.00;98812.47;5082408;28;20400;-83
2021/03/16 05:42:34;;;;;;;9.95;3.25;;;4.90;79.50;;;3.71;66.55;98809.09;5065302;28;20415;-83
2021/03/16 05:45:01;;;;;;;12.18;3.50;;;4.90;78.70;;;3.67;66.71;98821.72;5083295;28;20457;-83
2021/03/16 05:47:27;;;;;;;11.32;3.13;;;4.90;78.70;;;3.69;66.05;98824.97;5083632;28;20411;-82
2021/03/16 05:49:56;;;;;;;11.10;2.92;;;4.90;79.40;;;3.63;66.23;98822.22;5082004;28;20419;-83
2021/03/16 05:52:23;;;;;;;10.23;3.38;;;4.80;78.50;;;3.70;66.56;98828.41;5084010;28;20411;-82
2021/03/16 05:54:54;;;;;;;11.43;3.23;;;4.90;79.70;;;3.71;66.77;98827.41;5084133;28;20464;-82
2021/03/16 05:57:20;;;;;;;9.45;3.45;;;4.90;79.10;;;3.77;66.40;98838.03;5066098;28;20453;-82
2021/03/16 05:59:47;;;;;;;12.98;3.30;;;4.90;78.90;;;3.84;66.37;98843.38;5084334;28;20460;-83
2021/03/16 06:02:15;;;;;;;8.63;3.28;;;5.00;78.70;;;3.80;65.67;98852.59;5085118;28;20517;-82
2021/03/16 06:04:42;;;;;;;13.30;3.63;;;5.00;78.20;;;3.85;66.23;98847.63;5092035;28;20438;-83
2021/03/16 06:07:10;;;;;;;11.55;3.53;;;5.00;78.60;;;3.88;65.83;98848.13;5091376;28;20415;-83
2021/03/16 06:09:37;;;;;;;15.95;3.53;;;5.00;78.20;;;3.84;65.85;98846.81;5090710;28;20404;-83
2021/03/16 06:12:05;;;;;;;12.23;3.30;;;5.00;78.00;;;3.81;66.13;98851.59;5091792;28;20408;-82
2021/03/16 06:14:32;;;;;;;12.57;3.78;;;5.00;78.20;;;3.81;66.40;98854.22;5090906;28;20429;-83
2021/03/16 06:16:59;;;;;;;11.32;3.42;;;5.00;78.60;;;3.77;66.57;98848.50;5091034;28;20479;-84
2021/03/16 06:19:28;;;;;;;11.25;3.47;;;4.90;78.80;;;3.83;66.17;98854.88;5089655;28;20415;-83
2021/03/16 06:21:59;;;;;;;13.57;3.40;;;5.00;78.70;;;3.82;66.57;98851.44;5072495;28;20828;-84
2021/03/16 06:24:26;;;;;;;11.38;3.53;;;5.00;78.80;;;3.81;66.63;98862.91;5090594;28;20426;-83
2021/03/16 06:26:53;;;;;;;10.27;3.45;;;5.00;79.00;;;3.67;67.22;98857.56;5070334;28;20415;-82
2021/03/16 06:29:20;;;;;;;14.75;3.67;;;4.90;78.90;;;3.60;67.39;98861.84;5086006;28;20443;-84
2021/03/16 06:31:46;;;;;;;13.63;4.07;;;4.80;79.60;;;3.52;67.22;98859.28;5085622;28;20415;-81
2021/03/16 06:34:24;;;;;;;12.50;4.50;;;4.70;79.50;;;3.58;67.83;98862.03;5085191;28;20430;-82
2021/03/16 06:37:01;;;;;;;14.63;4.00;;;4.80;80.20;;;3.60;67.70;98859.25;5070332;28;20422;-83
2021/03/16 06:39:28;;;;;;;13.50;3.58;;;4.80;80.10;;;3.63;67.71;98864.13;5071971;28;20419;-83
2021/03/16 06:41:55;;;;;;;12.10;3.63;;;4.80;80.10;;;3.52;67.58;98870.56;5067245;28;20399;-84
2021/03/16 06:44:24;;;;;;;11.52;3.95;;;4.70;80.00;;;3.66;68.06;98867.22;5086010;28;20423;-82
2021/03/16 06:46:55;;;;;;;12.65;3.72;;;4.70;80.60;;;3.74;67.55;98871.59;5083634;28;20677;-82
2021/03/16 06:49:23;;;;;;;11.40;3.50;;;4.90;80.30;;;3.81;67.29;98870.75;5082854;28;20507;-82
2021/03/16 06:51:54;;;;;;;15.63;3.90;;;5.00;79.80;;;3.68;67.29;98885.38;5085152;28;20465;-83
2021/03/16 06:54:37;;;;;;;15.47;3.73;;;4.90;79.60;;;3.67;67.63;98887.19;5143714;27;20371;-84
2021/03/16 06:57:06;;;;;;;13.80;3.67;;;4.90;80.00;;;3.64;68.03;98884.09;5122132;28;20792;-84
2021/03/16 06:59:32;;;;;;;10.88;3.70;;;4.80;80.20;;;3.71;67.90;98885.03;5121600;28;20401;-83
2021/03/16 07:02:09;;;;;;;12.63;3.85;;;4.90;80.50;;;3.68;67.92;98896.69;5121880;28;20405;-84
2021/03/16 07:04:44;;;;;;;14.27;3.60;;;4.80;80.50;;;3.74;68.12;98906.47;5120781;28;20408;-83
2021/03/16 07:07:11;;;;;;;12.95;3.40;;;4.90;80.70;;;3.62;68.38;98904.38;5120418;28;20401;-84
2021/03/16 07:09:38;;;;;;;11.30;3.10;;;4.80;80.80;;;3.62;68.42;98920.09;5120695;28;20520;-83
2021/03/16 07:12:06;;;;;;;15.00;3.60;;;4.80;81.10;;;3.67;69.14;98912.56;5120729;28;20810;-84
2021/03/16 07:14:33;;;;;;;13.68;3.72;;;4.80;81.70;;;3.65;69.11;98922.38;5121432;28;20405;-84
2021/03/16 07:17:02;;;;;;;11.15;3.70;;;4.90;81.60;;;3.77;69.08;98928.88;5120085;28;20856;-84
2021/03/16 07:19:30;;;;;;;17.30;3.60;;;4.90;82.00;;;3.80;69.15;98924.13;5121159;28;20440;-84
2021/03/16 07:21:58;;;;;;;11.80;3.75;;;5.00;82.00;;;3.58;70.74;98944.97;5122938;28;20432;-84
2021/03/16 07:24:30;;;;;;;13.70;3.80;;;4.80;83.10;;;3.52;71.63;98938.63;5125498;28;20417;-84
2021/03/16 07:26:58;;;;;;;14.32;3.72;;;4.70;84.60;;;3.44;72.30;98941.25;5125055;28;20393;-84
2021/03/16 07:29:25;;;;;;;17.13;4.13;;;4.60;85.00;;;3.27;72.60;98942.28;5128262;28;20417;-85
2021/03/16 07:31:52;;;;;;;14.75;3.45;;;4.50;85.30;;;3.38;72.83;98945.34;5127858;28;20413;-83
2021/03/16 07:34:19;;;;;;;12.02;3.90;;;4.50;86.10;;;3.51;73.23;98950.06;5124689;28;20421;-84
2021/03/16 07:36:48;;;;;;;15.27;4.32;;;4.60;86.70;;;3.51;72.64;98942.22;5128554;28;20419;-83
2021/03/16 07:39:20;;;;;;;16.73;3.95;;;4.70;86.00;;;3.62;71.93;98949.69;5128392;28;20393;-83
2021/03/16 07:41:47;;;;;;;17.73;3.87;;;4.80;85.70;;;3.72;71.52;98955.56;5119080;28;20480;-84
2021/03/16 07:44:17;;;;;;;11.25;3.35;;;4.80;85.00;;;3.79;69.76;98958.34;5119286;28;20447;-83
2021/03/16 07:46:46;;;;;;;12.23;3.60;;;4.90;82.80;;;3.71;69.49;98964.41;5118990;28;20405;-82
2021/03/16 07:49:15;;;;;;;12.88;3.50;;;4.90;82.30;;;3.74;69.31;98969.31;5118266;28;20405;-82
2021/03/16 07:51:43;;;;;;;16.20;4.60;;;4.90;82.50;;;3.72;69.99;98975.72;5118584;28;20717;-84
2021/03/16 07:54:12;;;;;;;20.50;4.20;;;4.90;82.80;;;3.77;70.58;98982.06;5118436;28;20452;-85
2021/03/16 07:56:40;;;;;;;16.27;3.70;;;4.90;83.40;;;3.86;69.98;98982.84;5118190;28;20922;-82
2021/03/16 07:59:08;;;;;;;18.38;3.50;;;5.00;83.00;;;3.87;69.35;98974.84;5117998;28;20413;-84
2021/03/16 08:01:47;;;;;;;21.58;4.10;;;5.10;82.30;;;3.95;69.25;98984.47;5118682;28;20409;-83
2021/03/16 08:04:13;;;;;;;11.93;4.10;;;5.10;82.50;;;3.97;69.72;98969.41;5115970;28;20473;-82
2021/03/16 08:06:41;;;;;;;13.10;4.07;;;5.10;82.70;;;3.91;69.32;98975.31;5105223;28;20425;-85
2021/03/16 08:09:21;;;;;;;17.00;4.03;;;5.10;81.90;;;3.99;69.11;98972.66;5106371;28;20421;-81
2021/03/16 08:11:47;;;;;;;15.20;4.20;;;5.10;82.10;;;4.04;68.24;98969.53;5105962;28;20398;-81
2021/03/16 08:14:25;;;;;;;13.95;4.00;;;5.20;80.90;;;4.03;69.19;98979.19;5088429;28;20425;-83
2021/03/16 08:16:52;;;;;;;10.88;3.58;;;5.20;82.00;;;4.10;68.30;98982.78;5104319;28;20402;-83
2021/03/16 08:19:21;;;;;;;16.30;4.03;;;5.30;81.10;;;4.07;67.58;98987.53;5104488;28;20412;-84
2021/03/16 08:21:56;;;;;;;10.55;3.35;;;5.30;80.20;;;4.07;68.29;98979.66;5105538;28;20406;-83
2021/03/16 08:24:35;;;;;;;16.80;3.73;;;5.20;80.90;;;3.99;67.80;98985.75;5085112;28;20425;-82
2021/03/16 08:27:02;;;;;;;16.80;3.67;;;5.20;80.20;;;4.06;67.75;98986.69;5086362;28;20482;-81
2021/03/16 08:29:30;;;;;;;16.95;3.83;;;5.20;80.40;;;4.13;66.68;98987.69;5105531;28;20405;-82
2021/03/16 08:31:59;;;;;;;21.15;4.13;;;5.30;80.30;;;4.07;67.89;98980.47;5107371;28;20718;-82
2021/03/16 08:34:29;;;;;;;14.18;3.75;;;5.20;80.40;;;4.16;67.27;98982.09;5108859;28;20444;-84
2021/03/16 08:36:55;;;;;;;17.15;4.13;;;5.30;80.20;;;4.31;66.98;98990.03;5091292;28;20439;-83
2021/03/16 08:39:23;;;;;;;16.67;4.20;;;5.40;79.70;;;4.27;66.32;98981.72;5090353;28;20424;-83
2021/03/16 08:41:55;;;;;;;9.75;3.33;;;5.50;78.80;;;4.38;66.62;98985.75;5091421;28;20402;-82
2021/03/16 08:44:21;;;;;;;14.80;4.00;;;5.50;79.10;;;4.39;66.35;98983.94;5111656;28;20474;-81
2021/03/16 08:46:48;;;;;;;17.37;4.27;;;5.60;78.80;;;4.35;66.74;98987.91;5109488;28;20484;-82
2021/03/16 08:49:19;;;;;;;17.50;3.85;;;5.50;78.90;;;4.40;66.89;98983.78;5104545;28;20982;-83
2021/03/16 08:51:46;;;;;;;10.70;3.63;;;5.50;79.50;;;4.53;66.75;99001.56;5105687;28;20402;-82
2021/03/16 08:54:23;;;;;;;14.32;4.53;;;5.60;79.20;;;4.55;66.91;99007.44;5101586;28;20461;-83
2021/03/16 08:56:53;;;;;;;22.25;3.83;;;5.60;79.60;;;4.35;66.59;98999.22;5104960;28;20815;-82
2021/03/16 08:59:23;;;;;;;11.98;3.33;;;5.60;78.70;;;4.21;66.75;99003.34;5106637;28;20424;-82
2021/03/16 09:01:51;;;;;;;15.20;4.18;;;5.40;79.00;;;4.20;67.43;98996.50;5104010;28;20417;-82
2021/03/16 09:04:19;;;;;;;13.98;3.35;;;5.40;80.00;;;4.16;66.84;99010.09;5123202;28;20460;-82
2021/03/16 09:06:52;;;;;;;14.63;3.42;;;5.40;79.10;;;4.09;67.12;99009.97;5107051;28;20394;-82
2021/03/16 09:09:25;;;;;;;16.83;4.80;;;5.30;79.50;;;4.10;67.57;99016.84;5106593;28;20418;-83
2021/03/16 09:11:55;;;;;;;18.48;4.35;;;5.30;80.20;;;4.22;67.89;99022.50;5128992;28;20457;-82
2021/03/16 09:14:22;;;;;;;13.65;3.67;;;5.30;81.00;;;4.03;67.93;99028.97;5112113;28;20429;-83
2021/03/16 09:16:51;;;;;;;18.48;4.47;;;5.30;80.10;;;4.08;69.48;99023.22;5111727;28;20701;-82
2021/03/16 09:19:22;;;;;;;13.93;4.30;;;5.20;82.30;;;4.15;69.03;99030.25;5110595;28;20425;-83
2021/03/16 09:21:52;;;;;;;19.83;4.30;;;5.30;81.80;;;4.02;70.50;99035.19;5108866;28;20466;-82
2021/03/16 09:24:27;;;;;;;13.82;4.57;;;5.20;83.00;;;3.81;71.59;99034.94;5113768;28;20441;-82
2021/03/16 09:26:59;;;;;;;17.45;4.25;;;5.10;84.00;;;3.75;72.61;99046.09;5114090;28;20402;-82
2021/03/16 09:29:30;;;;;;;14.90;4.43;;;4.90;85.90;;;3.66;72.72;99040.03;5110856;28;20410;-82
2021/03/16 09:31:58;;;;;;;16.40;5.00;;;4.90;85.90;;;3.80;73.30;99034.13;5106778;28;20448;-81
2021/03/16 09:34:26;;;;;;;12.80;4.30;;;4.90;86.50;;;3.89;72.96;99042.78;5105514;28;20422;-84
2021/03/16 09:37:02;;;;;;;14.05;4.43;;;5.00;86.90;;;3.92;73.12;99049.47;5105521;28;20405;-81
2021/03/16 09:39:29;;;;;;;15.77;4.07;;;5.00;86.50;;;3.91;74.28;99059.13;5104198;28;20501;-84
2021/03/16 09:41:57;;;;;;;11.57;4.10;;;5.10;87.80;;;3.42;75.50;99059.22;5123278;28;20480;-84
2021/03/16 09:44:34;;;;;;;11.00;4.05;;;4.70;88.00;;;3.51;75.86;99062.66;5104450;28;20413;-82
2021/03/16 09:47:00;;;;;;;9.80;4.00;;;4.70;89.50;;;3.59;76.23;99072.28;5105611;28;20709;-83
2021/03/16 09:49:30;;;;;;;10.13;4.05;;;4.70;90.00;;;3.64;75.29;99068.19;5105340;28;20410;-83
2021/03/16 09:52:03;;;;;;;13.43;4.30;;;4.80;89.30;;;3.75;75.72;99077.53;5122300;28;20521;-83
2021/03/16 09:54:37;;;;;;;15.02;4.43;;;4.80;89.50;;;3.88;74.68;99059.47;5107234;28;20815;-83
2021/03/16 09:57:09;;;;;;;13.85;4.75;;;5.00;88.80;;;3.76;74.79;99068.69;5108710;28;20545;-83
2021/03/16 09:59:37;;;;;;;16.67;5.20;;;5.00;88.50;;;3.74;76.14;99065.41;5110387;28;20409;-83
2021/03/16 10:02:07;;;;;;;13.65;5.15;;;4.90;89.90;;;3.56;75.42;99068.19;5112140;28;20409;-83
2021/03/16 10:04:48;;;;;;;15.50;5.10;;;4.80;89.20;;;3.66;77.05;99065.41;5110658;28;20422;-83
2021/03/16 10:07:26;;;;;;;20.73;6.33;;;4.80;90.40;;;3.49;76.40;99062.81;5106821;28;20414;-81
2021/03/16 10:09:52;;;;;;;17.15;5.68;;;4.70;90.10;;;3.55;76.99;99063.94;5102667;28;20525;-81
2021/03/16 10:12:21;;;;;;;15.50;5.35;;;4.70;90.40;;;3.61;76.13;99057.25;5101135;28;20406;-83
2021/03/16 10:14:50;;;;;;;17.20;5.55;;;4.80;90.00;;;3.75;75.94;99060.00;5100003;28;20410;-82
2021/03/16 10:17:27;;;;;;;18.58;5.03;;;4.90;90.00;;;3.97;75.08;99055.88;5097743;28;20434;-81
2021/03/16 10:19:56;;;;;;;22.03;5.43;;;5.00;89.40;;;4.14;74.74;99056.59;5097885;28;20420;-82
2021/03/16 10:22:28;;;;;;;18.17;5.13;;;5.20;89.00;;;4.43;73.48;99053.41;5098036;28;20712;-83
2021/03/16 10:24:56;;;;;;;13.82;5.30;;;5.50;87.80;;;4.52;72.00;99042.69;5100548;28;20808;-82
2021/03/16 10:27:28;;;;;;;14.18;4.82;;;5.60;85.70;;;4.51;71.65;99053.38;5099981;28;20402;-82
2021/03/16 10:29:55;;;;;;;25.08;5.90;;;5.60;85.30;;;4.56;72.40;99049.25;5100413;28;20528;-82
2021/03/16 10:32:22;;;;;;;15.18;4.85;;;5.70;86.10;;;4.40;72.51;99051.94;5101988;28;20452;-81
2021/03/16 10:34:49;;;;;;;17.17;5.95;;;5.50;85.50;;;4.43;72.14;99043.75;5103388;28;20434;-82